createdAt,value
2018-07-04T00:00:08.023Z,24.40
2018-07-04T00:00:39.220Z,24.43
2018-07-04T00:01:10.400Z,22.87
2018-07-04T00:01:41.613Z,23.40
2018-07-04T00:02:12.840Z,22.13
2018-07-04T00:02:44.016Z,24.67
2018-07-04T00:03:15.248Z,24.67
2018-07-04T00:03:46.449Z,25.10
2018-07-04T00:04:17.679Z,25.57
2018-07-04T00:04:48.953Z,24.30
2018-07-04T00:05:20.210Z,24.83
2018-07-04T00:05:51.453Z,23.23
2018-07-04T00:06:22.729Z,24.63
2018-07-04T00:06:53.944Z,24.50
2018-07-04T00:07:25.142Z,24.50
2018-07-04T00:07:56.370Z,25.43
2018-07-04T00:08:27.601Z,25.47
2018-07-04T00:08:58.844Z,23.43
2018-07-04T00:09:30.086Z,25.07
2018-07-04T00:10:01.287Z,25.47
2018-07-04T00:10:32.534Z,24.67
2018-07-04T00:11:03.728Z,24.83
2018-07-04T00:11:34.912Z,25.20
2018-07-04T00:12:06.092Z,24.83
2018-07-04T00:12:37.378Z,25.40
2018-07-04T00:13:08.619Z,25.27
2018-07-04T00:13:39.816Z,25.17
2018-07-04T00:14:11.033Z,25.23
2018-07-04T00:14:42.265Z,25.53
2018-07-04T00:15:13.461Z,24.87
2018-07-04T00:15:44.640Z,25.87
2018-07-04T00:16:15.818Z,22.87
2018-07-04T00:16:46.990Z,25.37
2018-07-04T00:17:18.164Z,25.70
2018-07-04T00:17:49.337Z,25.60
2018-07-04T00:18:20.563Z,26.07
2018-07-04T00:18:51.792Z,25.80
2018-07-04T00:19:22.990Z,26.07
2018-07-04T00:19:54.164Z,25.97
2018-07-04T00:20:25.337Z,25.70
2018-07-04T00:20:56.551Z,27.07
2018-07-04T00:21:27.765Z,25.30
2018-07-04T00:21:58.957Z,26.63
2018-07-04T00:22:30.189Z,25.97
2018-07-04T00:23:01.394Z,26.73
2018-07-04T00:23:32.600Z,26.37
2018-07-04T00:24:03.777Z,26.23
2018-07-04T00:24:35.330Z,26.60
2018-07-04T00:25:06.516Z,26.80
2018-07-04T00:25:37.724Z,26.60
2018-07-04T00:26:08.958Z,27.83
2018-07-04T00:26:40.186Z,27.03
2018-07-04T00:27:11.479Z,26.33
2018-07-04T00:27:42.741Z,26.50
2018-07-04T00:28:13.984Z,26.83
2018-07-04T00:28:45.220Z,26.43
2018-07-04T00:29:16.474Z,27.30
2018-07-04T00:29:47.709Z,27.70
2018-07-04T00:30:18.942Z,28.47
2018-07-04T00:30:50.194Z,27.00
2018-07-04T00:31:21.445Z,26.53
2018-07-04T00:31:52.671Z,27.30
2018-07-04T00:32:23.975Z,26.73
2018-07-04T00:32:55.211Z,28.10
2018-07-04T00:33:26.457Z,27.10
2018-07-04T00:33:57.700Z,26.03
2018-07-04T00:34:28.942Z,26.20
2018-07-04T00:35:00.245Z,26.33
2018-07-04T00:35:31.481Z,27.03
2018-07-04T00:36:02.845Z,26.60
2018-07-04T00:36:34.103Z,25.33
2018-07-04T00:37:05.355Z,26.27
2018-07-04T00:37:36.609Z,26.60
2018-07-04T00:38:07.846Z,25.40
2018-07-04T00:38:39.090Z,26.07
2018-07-04T00:39:10.334Z,25.80
2018-07-04T00:39:41.663Z,27.13
2018-07-04T00:40:12.893Z,27.13
2018-07-04T00:40:44.133Z,27.50
2018-07-04T00:41:15.369Z,25.00
2018-07-04T00:41:46.601Z,26.47
2018-07-04T00:42:17.837Z,26.70
2018-07-04T00:42:49.065Z,27.53
2018-07-04T00:43:20.300Z,27.10
2018-07-04T00:43:51.526Z,26.47
2018-07-04T00:44:22.841Z,26.53
2018-07-04T00:44:54.079Z,27.47
2018-07-04T00:45:25.325Z,27.27
2018-07-04T00:45:56.559Z,27.57
2018-07-04T00:46:27.813Z,27.90
2018-07-04T00:46:59.049Z,26.60
2018-07-04T00:47:30.301Z,27.37
2018-07-04T00:48:01.581Z,28.17
2018-07-04T00:48:32.820Z,27.57
2018-07-04T00:49:04.062Z,27.80
2018-07-04T00:49:35.364Z,27.83
2018-07-04T00:50:06.609Z,28.53
2018-07-04T00:50:37.849Z,26.73
2018-07-04T00:51:09.089Z,28.23
2018-07-04T00:51:40.320Z,27.67
2018-07-04T00:52:11.559Z,26.90
2018-07-04T00:52:42.784Z,27.03
2018-07-04T00:53:14.021Z,27.60
2018-07-04T00:53:45.257Z,26.13
2018-07-04T00:54:16.494Z,26.33
2018-07-04T00:54:47.782Z,27.10
2018-07-04T00:55:19.024Z,27.17
2018-07-04T00:55:50.304Z,28.10
2018-07-04T00:56:21.556Z,29.03
2018-07-04T00:56:52.789Z,29.23
2018-07-04T00:57:24.023Z,29.83
2018-07-04T00:57:55.253Z,28.00
2018-07-04T00:58:26.499Z,28.17
2018-07-04T00:58:57.735Z,27.63
2018-07-04T00:59:28.977Z,29.17
2018-07-04T01:00:00.281Z,27.20
2018-07-04T01:00:31.516Z,26.97
2018-07-04T01:01:02.805Z,26.60
2018-07-04T01:01:34.046Z,27.00
2018-07-04T01:02:05.281Z,26.87
2018-07-04T01:02:36.526Z,27.27
2018-07-04T01:03:07.821Z,28.00
2018-07-04T01:03:39.077Z,27.83
2018-07-04T01:04:10.331Z,29.80
2018-07-04T01:04:41.567Z,29.50
2018-07-04T01:05:12.803Z,28.67
2018-07-04T01:05:44.075Z,29.83
2018-07-04T01:06:15.382Z,28.10
2018-07-04T01:06:46.617Z,29.33
2018-07-04T01:07:17.861Z,29.50
2018-07-04T01:07:49.085Z,28.47
2018-07-04T01:08:20.329Z,29.23
2018-07-04T01:08:51.562Z,30.33
2018-07-04T01:09:22.793Z,30.23
2018-07-04T01:09:54.017Z,30.63
2018-07-04T01:10:25.273Z,29.43
2018-07-04T01:10:56.530Z,31.07
2018-07-04T01:11:27.826Z,31.93
2018-07-04T01:11:59.056Z,30.60
2018-07-04T01:12:30.301Z,30.40
2018-07-04T01:13:01.551Z,31.13
2018-07-04T01:13:32.805Z,30.20
2018-07-04T01:14:04.033Z,31.43
2018-07-04T01:14:35.265Z,31.37
2018-07-04T01:15:06.496Z,30.67
2018-07-04T01:15:37.728Z,30.30
2018-07-04T01:16:08.974Z,31.33
2018-07-04T01:16:40.265Z,31.07
2018-07-04T01:17:11.504Z,30.40
2018-07-04T01:17:42.737Z,30.90
2018-07-04T01:18:13.973Z,30.70
2018-07-04T01:18:45.226Z,31.13
2018-07-04T01:19:16.465Z,31.10
2018-07-04T01:19:47.692Z,30.37
2018-07-04T01:20:18.925Z,28.50
2018-07-04T01:20:50.157Z,29.43
2018-07-04T01:21:21.393Z,29.27
2018-07-04T01:21:52.711Z,29.70
2018-07-04T01:22:23.968Z,30.50
2018-07-04T01:22:55.216Z,30.20
2018-07-04T01:23:26.485Z,31.10
2018-07-04T01:23:57.728Z,30.33
2018-07-04T01:24:28.975Z,31.17
2018-07-04T01:25:00.217Z,29.53
2018-07-04T01:25:31.452Z,29.13
2018-07-04T01:26:02.680Z,29.93
2018-07-04T01:26:33.912Z,27.97
2018-07-04T01:27:05.214Z,29.27
2018-07-04T01:27:36.461Z,28.20
2018-07-04T01:28:07.693Z,28.53
2018-07-04T01:28:38.925Z,29.97
2018-07-04T01:29:10.159Z,29.33
2018-07-04T01:29:41.389Z,29.23
2018-07-04T01:30:12.621Z,29.33
2018-07-04T01:30:43.896Z,30.63
2018-07-04T01:31:15.219Z,30.13
2018-07-04T01:31:46.521Z,30.53
2018-07-04T01:32:17.766Z,30.27
2018-07-04T01:32:48.989Z,30.07
2018-07-04T01:33:20.221Z,28.57
2018-07-04T01:33:51.491Z,27.13
2018-07-04T01:34:22.738Z,29.47
2018-07-04T01:34:53.981Z,29.50
2018-07-04T01:35:25.229Z,28.93
2018-07-04T01:35:56.523Z,28.20
2018-07-04T01:36:27.784Z,26.53
2018-07-04T01:36:59.052Z,26.17
2018-07-04T01:37:30.290Z,28.17
2018-07-04T01:38:01.541Z,26.93
2018-07-04T01:38:32.780Z,26.93
2018-07-04T01:39:04.015Z,28.70
2018-07-04T01:39:35.250Z,26.57
2018-07-04T01:40:06.496Z,27.27
2018-07-04T01:40:37.814Z,28.93
2018-07-04T01:41:09.064Z,29.57
2018-07-04T01:41:40.297Z,29.73
2018-07-04T01:42:11.541Z,28.57
2018-07-04T01:42:43.780Z,30.10
2018-07-04T01:43:15.022Z,30.77
2018-07-04T01:43:46.274Z,29.87
2018-07-04T01:44:17.515Z,30.13
2018-07-04T01:44:48.754Z,29.03
2018-07-04T01:45:19.981Z,28.97
2018-07-04T01:45:51.265Z,31.93
2018-07-04T01:46:22.519Z,30.40
2018-07-04T01:46:53.893Z,30.43
2018-07-04T01:47:25.141Z,31.23
2018-07-04T01:47:56.377Z,31.03
2018-07-04T01:48:27.668Z,31.67
2018-07-04T01:48:58.908Z,32.00
2018-07-04T01:49:30.831Z,30.97
2018-07-04T01:50:02.124Z,30.77
2018-07-04T01:50:33.377Z,30.33
2018-07-04T01:51:04.659Z,29.83
2018-07-04T01:51:35.897Z,28.57
2018-07-04T01:52:07.124Z,29.17
2018-07-04T01:52:38.357Z,31.20
2018-07-04T01:53:09.617Z,29.47
2018-07-04T01:53:40.900Z,29.87
2018-07-04T01:54:12.145Z,28.97
2018-07-04T01:54:43.389Z,31.27
2018-07-04T01:55:14.629Z,27.47
2018-07-04T01:55:45.905Z,30.57
2018-07-04T01:56:17.137Z,29.07
2018-07-04T01:56:48.397Z,29.57
2018-07-04T01:57:19.668Z,29.03
2018-07-04T01:57:50.916Z,31.63
2018-07-04T01:58:22.145Z,29.30
2018-07-04T01:58:53.377Z,31.00
2018-07-04T01:59:24.612Z,31.30
2018-07-04T01:59:55.865Z,29.97
2018-07-04T02:00:27.156Z,24.63
2018-07-04T02:00:58.387Z,26.47
2018-07-04T02:01:29.622Z,28.73
2018-07-04T02:02:00.853Z,29.97
2018-07-04T02:02:32.095Z,29.53
2018-07-04T02:03:03.343Z,28.77
2018-07-04T02:03:34.573Z,29.50
2018-07-04T02:04:05.808Z,29.23
2018-07-04T02:04:37.037Z,27.30
2018-07-04T02:05:08.269Z,28.30
2018-07-04T02:05:39.564Z,29.20
2018-07-04T02:06:10.793Z,28.27
2018-07-04T02:06:42.025Z,29.40
2018-07-04T02:07:13.258Z,28.67
2018-07-04T02:07:44.489Z,28.83
2018-07-04T02:08:15.719Z,30.77
2018-07-04T02:08:47.012Z,31.40
2018-07-04T02:09:18.253Z,31.67
2018-07-04T02:09:49.493Z,31.77
2018-07-04T02:10:20.730Z,32.97
2018-07-04T02:10:51.960Z,32.63
2018-07-04T02:11:23.192Z,30.73
2018-07-04T02:11:54.421Z,31.67
2018-07-04T02:12:25.716Z,31.20
2018-07-04T02:12:56.952Z,30.40
2018-07-04T02:13:28.192Z,31.43
2018-07-04T02:13:59.429Z,31.17
2018-07-04T02:14:30.659Z,29.10
2018-07-04T02:15:01.948Z,29.90
2018-07-04T02:15:33.176Z,30.10
2018-07-04T02:16:04.493Z,31.03
2018-07-04T02:16:35.748Z,31.63
2018-07-04T02:17:06.981Z,29.27
2018-07-04T02:17:38.219Z,27.80
2018-07-04T02:18:09.449Z,28.23
2018-07-04T02:18:40.673Z,29.57
2018-07-04T02:19:11.912Z,28.37
2018-07-04T02:19:43.137Z,26.93
2018-07-04T02:20:14.422Z,28.47
2018-07-04T02:20:45.754Z,27.50
2018-07-04T02:21:16.989Z,25.67
2018-07-04T02:21:48.218Z,26.53
2018-07-04T02:22:19.453Z,26.67
2018-07-04T02:22:50.694Z,25.97
2018-07-04T02:23:21.955Z,25.10
2018-07-04T02:23:53.201Z,26.40
2018-07-04T02:24:24.449Z,25.57
2018-07-04T02:24:55.737Z,25.13
2018-07-04T02:25:27.095Z,23.73
2018-07-04T02:25:58.360Z,23.73
2018-07-04T02:26:29.602Z,25.17
2018-07-04T02:27:00.842Z,25.33
2018-07-04T02:27:32.081Z,25.60
2018-07-04T02:28:03.357Z,25.87
2018-07-04T02:28:34.625Z,25.63
2018-07-04T02:29:05.866Z,26.73
2018-07-04T02:29:37.117Z,27.10
2018-07-04T02:30:08.301Z,26.93
2018-07-04T02:30:39.528Z,27.10
2018-07-04T02:31:10.762Z,27.17
2018-07-04T02:31:41.953Z,26.80
2018-07-04T02:32:13.203Z,26.87
2018-07-04T02:32:44.393Z,26.33
2018-07-04T02:33:15.619Z,27.03
2018-07-04T02:33:46.805Z,28.87
2018-07-04T02:34:17.995Z,27.37
2018-07-04T02:34:49.216Z,28.07
2018-07-04T02:35:20.445Z,27.93
2018-07-04T02:35:51.673Z,28.80
2018-07-04T02:36:22.913Z,27.77
2018-07-04T02:36:55.515Z,28.70
2018-07-04T02:37:26.747Z,29.07
2018-07-04T02:37:57.952Z,29.63
2018-07-04T02:38:29.171Z,28.67
2018-07-04T02:39:00.509Z,28.60
2018-07-04T02:39:31.736Z,28.17
2018-07-04T02:40:02.908Z,28.70
2018-07-04T02:40:34.101Z,28.73
2018-07-04T02:41:05.302Z,29.47
2018-07-04T02:41:36.533Z,28.67
2018-07-04T02:42:07.776Z,29.43
2018-07-04T02:42:39.011Z,30.63
2018-07-04T02:43:10.201Z,30.03
2018-07-04T02:43:41.443Z,30.43
2018-07-04T02:44:12.676Z,30.07
2018-07-04T02:44:43.849Z,29.47
2018-07-04T02:45:15.118Z,30.37
2018-07-04T02:45:46.346Z,28.60
2018-07-04T02:46:17.541Z,30.03
2018-07-04T02:46:48.717Z,29.73
2018-07-04T02:47:19.899Z,31.67
2018-07-04T02:47:51.093Z,30.30
2018-07-04T02:48:22.277Z,30.67
2018-07-04T02:48:53.446Z,32.63
2018-07-04T02:49:24.679Z,30.97
2018-07-04T02:49:55.906Z,32.27
2018-07-04T02:50:27.088Z,32.03
2018-07-04T02:50:58.268Z,32.17
2018-07-04T02:51:29.559Z,31.60
2018-07-04T02:52:00.749Z,31.07
2018-07-04T02:52:31.932Z,32.23
2018-07-04T02:53:03.102Z,33.00
2018-07-04T02:53:35.228Z,32.33
2018-07-04T02:54:06.496Z,30.27
2018-07-04T02:54:37.744Z,34.63
2018-07-04T02:55:08.935Z,33.13
2018-07-04T02:55:40.172Z,33.00
2018-07-04T02:56:11.352Z,34.50
2018-07-04T02:56:42.538Z,33.30
2018-07-04T02:57:13.708Z,33.80
2018-07-04T02:57:44.941Z,33.00
2018-07-04T02:58:16.138Z,34.67
2018-07-04T02:58:47.312Z,32.63
2018-07-04T02:59:18.545Z,33.33
2018-07-04T02:59:49.792Z,31.33
2018-07-04T03:00:20.969Z,32.53
2018-07-04T03:00:52.161Z,31.23
2018-07-04T03:01:23.332Z,30.73
2018-07-04T03:01:54.505Z,29.87
2018-07-04T03:02:25.728Z,31.70
2018-07-04T03:02:56.905Z,31.40
2018-07-04T03:03:28.072Z,31.23
2018-07-04T03:03:59.256Z,31.93
2018-07-04T03:04:30.512Z,33.07
2018-07-04T03:05:01.695Z,31.63
2018-07-04T03:05:32.923Z,31.23
2018-07-04T03:06:04.117Z,32.03
2018-07-04T03:06:35.337Z,30.93
2018-07-04T03:07:06.581Z,32.37
2018-07-04T03:07:37.760Z,31.93
2018-07-04T03:08:08.929Z,32.00
2018-07-04T03:08:40.098Z,29.20
2018-07-04T03:09:11.265Z,28.97
2018-07-04T03:09:42.448Z,30.70
2018-07-04T03:10:13.691Z,29.57
2018-07-04T03:10:44.877Z,29.97
2018-07-04T03:11:16.054Z,29.37
2018-07-04T03:11:47.234Z,30.43
2018-07-04T03:12:18.471Z,29.77
2018-07-04T03:12:49.704Z,29.77
2018-07-04T03:13:20.950Z,29.43
2018-07-04T03:13:52.178Z,30.47
2018-07-04T03:14:23.354Z,29.90
2018-07-04T03:14:54.520Z,28.93
2018-07-04T03:15:25.742Z,29.70
2018-07-04T03:15:56.920Z,29.63
2018-07-04T03:16:28.100Z,29.13
2018-07-04T03:16:59.284Z,29.20
2018-07-04T03:17:30.587Z,29.13
2018-07-04T03:18:01.775Z,29.73
2018-07-04T03:18:33.029Z,28.47
2018-07-04T03:19:04.214Z,29.20
2018-07-04T03:19:35.384Z,29.17
2018-07-04T03:20:07.153Z,27.80
2018-07-04T03:20:38.344Z,26.63
2018-07-04T03:21:09.532Z,27.70
2018-07-04T03:21:40.780Z,27.53
2018-07-04T03:22:12.590Z,27.63
2018-07-04T03:22:44.393Z,28.30
2018-07-04T03:23:15.652Z,27.30
2018-07-04T03:23:46.881Z,26.73
2018-07-04T03:24:18.877Z,25.77
2018-07-04T03:24:50.102Z,26.73
2018-07-04T03:25:21.288Z,26.23
2018-07-04T03:25:52.550Z,26.43
2018-07-04T03:26:23.736Z,25.80
2018-07-04T03:26:54.969Z,26.80
2018-07-04T03:27:26.209Z,27.27
2018-07-04T03:27:57.493Z,26.00
2018-07-04T03:28:28.879Z,26.70
2018-07-04T03:29:00.057Z,26.43
2018-07-04T03:29:31.296Z,25.93
2018-07-04T03:30:02.470Z,25.53
2018-07-04T03:30:33.696Z,26.30
2018-07-04T03:31:04.685Z,26.67
2018-07-04T03:31:35.845Z,25.50
2018-07-04T03:32:07.029Z,25.87
2018-07-04T03:32:38.217Z,25.90
2018-07-04T03:33:09.447Z,26.47
2018-07-04T03:33:40.635Z,26.23
2018-07-04T03:34:11.808Z,26.17
2018-07-04T03:34:43.041Z,25.37
2018-07-04T03:35:14.296Z,26.40
2018-07-04T03:35:45.511Z,25.23
2018-07-04T03:36:16.687Z,24.67
2018-07-04T03:36:47.868Z,24.60
2018-07-04T03:37:19.097Z,25.93
2018-07-04T03:37:50.291Z,24.63
2018-07-04T03:38:21.636Z,25.13
2018-07-04T03:38:52.817Z,24.73
2018-07-04T03:39:23.997Z,25.10
2018-07-04T03:39:55.169Z,25.30
2018-07-04T03:40:26.351Z,22.73
2018-07-04T03:40:57.587Z,24.03
2018-07-04T03:41:29.304Z,23.43
2018-07-04T03:42:01.705Z,22.20
2018-07-04T03:42:32.927Z,24.07
2018-07-04T03:43:04.161Z,24.47
2018-07-04T03:43:35.453Z,23.77
2018-07-04T03:44:06.717Z,24.23
2018-07-04T03:44:37.913Z,23.67
2018-07-04T03:45:09.085Z,23.90
2018-07-04T03:45:40.309Z,22.87
2018-07-04T03:46:12.097Z,23.27
2018-07-04T03:46:43.290Z,23.03
2018-07-04T03:47:14.537Z,22.97
2018-07-04T03:47:45.721Z,22.07
2018-07-04T03:48:16.905Z,23.10
2018-07-04T03:48:48.185Z,22.47
2018-07-04T03:49:19.377Z,21.80
2018-07-04T03:49:50.556Z,22.07
2018-07-04T03:50:21.733Z,22.83
2018-07-04T03:50:52.923Z,23.03
2018-07-04T03:51:24.098Z,21.87
2018-07-04T03:51:55.283Z,23.17
2018-07-04T03:52:26.516Z,22.50
2018-07-04T03:52:57.700Z,21.20
2018-07-04T03:53:28.917Z,21.87
2018-07-04T03:54:00.144Z,21.47
2018-07-04T03:54:31.324Z,22.13
2018-07-04T03:55:02.558Z,21.80
2018-07-04T03:55:33.761Z,20.57
2018-07-04T03:56:05.002Z,21.83
2018-07-04T03:56:36.250Z,21.63
2018-07-04T03:57:07.433Z,21.53
2018-07-04T03:57:38.637Z,21.77
2018-07-04T03:58:09.888Z,21.47
2018-07-04T03:58:41.161Z,21.23
2018-07-04T03:59:12.401Z,21.47
2018-07-04T03:59:43.599Z,22.27
2018-07-04T04:00:14.787Z,20.93
2018-07-04T04:00:45.978Z,22.20
2018-07-04T04:01:17.221Z,20.37
2018-07-04T04:01:48.521Z,21.40
2018-07-04T04:02:19.705Z,20.33
2018-07-04T04:02:50.902Z,20.70
2018-07-04T04:03:22.774Z,21.33
2018-07-04T04:03:53.990Z,21.27
2018-07-04T04:04:25.216Z,21.70
2018-07-04T04:04:56.401Z,20.53
2018-07-04T04:05:27.592Z,21.03
2018-07-04T04:05:58.832Z,20.53
2018-07-04T04:06:30.086Z,20.67
2018-07-04T04:07:01.284Z,21.47
2018-07-04T04:07:32.472Z,20.80
2018-07-04T04:08:03.645Z,20.87
2018-07-04T04:08:34.832Z,20.33
2018-07-04T04:09:06.017Z,20.87
2018-07-04T04:09:37.307Z,20.70
2018-07-04T04:10:08.542Z,20.63
2018-07-04T04:10:39.740Z,20.63
2018-07-04T04:11:11.023Z,20.53
2018-07-04T04:11:42.277Z,20.63
2018-07-04T04:12:13.465Z,21.17
2018-07-04T04:12:44.696Z,20.70
2018-07-04T04:13:15.895Z,21.10
2018-07-04T04:13:47.076Z,20.40
2018-07-04T04:14:18.318Z,20.97
2018-07-04T04:14:49.570Z,21.67
2018-07-04T04:15:20.812Z,21.00
2018-07-04T04:15:52.003Z,20.97
2018-07-04T04:16:23.188Z,20.80
2018-07-04T04:16:54.433Z,20.63
2018-07-04T04:17:25.637Z,21.37
2018-07-04T04:17:56.834Z,21.30
2018-07-04T04:18:28.069Z,20.30
2018-07-04T04:18:59.314Z,20.80
2018-07-04T04:19:30.504Z,20.43
2018-07-04T04:20:01.750Z,19.90
2018-07-04T04:20:32.928Z,20.27
2018-07-04T04:21:04.100Z,20.50
2018-07-04T04:21:35.283Z,19.63
2018-07-04T04:22:06.525Z,19.50
2018-07-04T04:22:37.771Z,20.47
2018-07-04T04:23:08.955Z,19.37
2018-07-04T04:23:40.134Z,19.17
2018-07-04T04:24:11.319Z,19.37
2018-07-04T04:24:42.497Z,20.30
2018-07-04T04:25:13.733Z,19.60
2018-07-04T04:25:44.937Z,18.77
2018-07-04T04:26:16.112Z,18.30
2018-07-04T04:26:47.299Z,18.83
2018-07-04T04:27:18.510Z,18.77
2018-07-04T04:27:49.768Z,18.43
2018-07-04T04:28:21.020Z,18.50
2018-07-04T04:28:52.993Z,19.03
2018-07-04T04:29:24.308Z,18.43
2018-07-04T04:29:56.566Z,18.20
2018-07-04T04:30:27.798Z,18.63
2018-07-04T04:30:59.957Z,18.30
2018-07-04T04:31:31.205Z,18.23
2018-07-04T04:32:02.389Z,18.83
2018-07-04T04:32:33.618Z,17.83
2018-07-04T04:33:04.851Z,17.87
2018-07-04T04:33:36.030Z,17.73
2018-07-04T04:34:07.213Z,18.03
2018-07-04T04:34:38.441Z,18.43
2018-07-04T04:35:09.652Z,17.87
2018-07-04T04:35:40.896Z,17.27
2018-07-04T04:36:12.096Z,16.83
2018-07-04T04:36:43.278Z,17.17
2018-07-04T04:37:14.521Z,17.53
2018-07-04T04:37:45.711Z,17.47
2018-07-04T04:38:16.945Z,16.77
2018-07-04T04:38:48.126Z,16.50
2018-07-04T04:39:19.316Z,17.93
2018-07-04T04:39:50.500Z,16.63
2018-07-04T04:40:21.675Z,17.13
2018-07-04T04:40:52.913Z,16.63
2018-07-04T04:41:24.105Z,17.93
2018-07-04T04:41:55.285Z,17.17
2018-07-04T04:42:26.567Z,17.50
2018-07-04T04:42:57.802Z,16.73
2018-07-04T04:43:29.070Z,16.67
2018-07-04T04:44:00.248Z,17.23
2018-07-04T04:44:31.430Z,16.93
2018-07-04T04:45:02.628Z,16.90
2018-07-04T04:45:33.866Z,17.47
2018-07-04T04:46:05.075Z,17.40
2018-07-04T04:46:36.302Z,17.23
2018-07-04T04:47:07.491Z,16.90
2018-07-04T04:47:38.725Z,16.83
2018-07-04T04:48:09.974Z,17.23
2018-07-04T04:48:41.242Z,16.87
2018-07-04T04:49:12.762Z,17.13
2018-07-04T04:49:43.980Z,18.37
2018-07-04T04:50:15.204Z,16.73
2018-07-04T04:50:50.348Z,16.93
2018-07-04T04:51:22.833Z,16.53
2018-07-04T04:52:01.203Z,16.90
2018-07-04T04:52:35.065Z,16.70
2018-07-04T04:53:09.261Z,16.90
2018-07-04T04:53:40.462Z,17.87
2018-07-04T04:54:12.659Z,17.50
2018-07-04T04:54:44.104Z,16.30
2018-07-04T04:55:15.431Z,16.73
2018-07-04T04:55:46.752Z,16.40
2018-07-04T04:56:18.078Z,16.20
2018-07-04T04:56:49.272Z,17.03
2018-07-04T04:57:20.457Z,17.00
2018-07-04T04:57:52.322Z,17.83
2018-07-04T04:58:23.537Z,17.57
2018-07-04T04:58:54.725Z,17.27
2018-07-04T04:59:25.962Z,17.10
2018-07-04T04:59:58.149Z,17.40
2018-07-04T05:00:30.343Z,17.27
2018-07-04T05:01:01.738Z,17.10
2018-07-04T05:01:35.156Z,17.80
2018-07-04T05:02:06.361Z,17.30
2018-07-04T05:02:37.644Z,17.20
2018-07-04T05:03:09.956Z,18.17
2018-07-04T05:03:41.199Z,17.07
2018-07-04T05:04:12.372Z,16.57
2018-07-04T05:04:43.594Z,16.47
2018-07-04T05:05:14.829Z,17.13
2018-07-04T05:05:46.077Z,17.00
2018-07-04T05:06:17.278Z,17.53
2018-07-04T05:06:48.500Z,18.17
2018-07-04T05:07:19.732Z,17.90
2018-07-04T05:07:51.037Z,17.67
2018-07-04T05:08:22.185Z,17.73
2018-07-04T05:08:53.361Z,18.43
2018-07-04T05:09:24.528Z,18.07
2018-07-04T05:09:55.757Z,19.23
2018-07-04T05:10:27.003Z,19.20
2018-07-04T05:10:58.186Z,19.95
2018-07-04T05:11:29.418Z,18.48
2018-07-04T05:12:00.602Z,18.87
2018-07-04T05:12:31.783Z,19.32
2018-07-04T05:13:02.978Z,17.53
2018-07-04T05:13:34.151Z,18.57
2018-07-04T05:14:05.322Z,18.77
2018-07-04T05:14:36.521Z,18.95
2018-07-04T05:15:10.293Z,18.12
2018-07-04T05:15:41.529Z,18.45
2018-07-04T05:16:12.778Z,19.57
2018-07-04T05:16:44.017Z,18.75
2018-07-04T05:17:15.253Z,19.12
2018-07-04T05:17:46.488Z,18.25
2018-07-04T05:18:17.674Z,18.25
2018-07-04T05:18:48.914Z,18.50
2018-07-04T05:19:20.106Z,16.87
2018-07-04T05:19:51.353Z,18.40
2018-07-04T05:20:22.533Z,17.35
2018-07-04T05:20:53.729Z,16.52
2018-07-04T05:21:24.913Z,17.57
2018-07-04T05:21:56.106Z,16.77
2018-07-04T05:22:27.341Z,16.97
2018-07-04T05:22:58.578Z,16.45
2018-07-04T05:23:29.824Z,15.85
2018-07-04T05:24:01.099Z,14.78
2018-07-04T05:24:32.335Z,14.87
2018-07-04T05:25:03.664Z,14.38
2018-07-04T05:25:34.912Z,13.85
2018-07-04T05:26:06.109Z,14.05
2018-07-04T05:26:37.299Z,14.23
2018-07-04T05:27:08.492Z,13.53
2018-07-04T05:27:39.744Z,13.93
2018-07-04T05:28:10.982Z,12.75
2018-07-04T05:28:42.192Z,13.08
2018-07-04T05:29:13.373Z,14.25
2018-07-04T05:29:44.611Z,13.93
2018-07-04T05:30:15.865Z,13.45
2018-07-04T05:30:47.046Z,14.20
2018-07-04T05:31:18.224Z,13.98
2018-07-04T05:31:50.176Z,13.90
2018-07-04T05:32:21.376Z,13.90
2018-07-04T05:32:52.552Z,13.90
2018-07-04T05:33:23.743Z,13.88
2018-07-04T05:33:54.931Z,14.13
2018-07-04T05:34:26.116Z,13.95
2018-07-04T05:34:57.352Z,14.75
2018-07-04T05:35:28.649Z,13.75
2018-07-04T05:35:59.892Z,15.98
2018-07-04T05:36:31.091Z,15.35
2018-07-04T05:37:02.269Z,15.50
2018-07-04T05:37:33.537Z,15.60
2018-07-04T05:38:04.744Z,15.05
2018-07-04T05:38:35.968Z,14.47
2018-07-04T05:39:07.148Z,15.78
2018-07-04T05:39:38.344Z,15.70
2018-07-04T05:40:09.569Z,16.65
2018-07-04T05:40:40.877Z,16.67
2018-07-04T05:41:12.113Z,16.05
2018-07-04T05:41:43.297Z,16.77
2018-07-04T05:42:14.481Z,17.02
2018-07-04T05:42:45.757Z,17.05
2018-07-04T05:43:16.951Z,16.70
2018-07-04T05:43:48.166Z,17.30
2018-07-04T05:44:19.455Z,15.75
2018-07-04T05:44:50.648Z,17.73
2018-07-04T05:45:21.825Z,17.62
2018-07-04T05:45:53.007Z,17.07
2018-07-04T05:46:24.320Z,17.10
2018-07-04T05:46:55.553Z,17.40
2018-07-04T05:47:26.740Z,16.32
2018-07-04T05:47:57.973Z,16.27
2018-07-04T05:48:29.218Z,16.48
2018-07-04T05:49:00.420Z,17.37
2018-07-04T05:49:31.656Z,17.45
2018-07-04T05:50:03.040Z,17.05
2018-07-04T05:50:34.084Z,16.82
2018-07-04T05:51:05.284Z,17.15
2018-07-04T05:51:36.597Z,17.62
2018-07-04T05:52:07.802Z,17.77
2018-07-04T05:52:39.948Z,17.90
2018-07-04T05:53:11.140Z,17.67
2018-07-04T05:53:42.325Z,17.67
2018-07-04T05:54:13.522Z,17.55
2018-07-04T05:54:44.705Z,17.10
2018-07-04T05:55:15.953Z,17.20
2018-07-04T05:55:47.164Z,16.70
2018-07-04T05:56:18.471Z,17.90
2018-07-04T05:56:49.714Z,17.82
2018-07-04T05:57:20.915Z,17.80
2018-07-04T05:57:52.109Z,16.60
2018-07-04T05:58:23.301Z,17.05
2018-07-04T05:58:54.544Z,17.55
2018-07-04T05:59:25.733Z,17.02
2018-07-04T05:59:56.965Z,18.92
2018-07-04T06:00:28.157Z,18.37
2018-07-04T06:00:59.393Z,17.75
2018-07-04T06:01:30.637Z,18.00
2018-07-04T06:02:04.935Z,18.20
2018-07-04T06:02:36.205Z,18.87
2018-07-04T06:03:07.433Z,18.57
2018-07-04T06:03:38.673Z,19.73
2018-07-04T06:04:09.907Z,19.23
2018-07-04T06:04:41.116Z,18.32
2018-07-04T06:05:12.365Z,17.87
2018-07-04T06:05:43.571Z,19.15
2018-07-04T06:06:14.752Z,19.25
2018-07-04T06:06:45.937Z,19.15
2018-07-04T06:07:17.126Z,18.57
2018-07-04T06:07:48.421Z,19.10
2018-07-04T06:08:19.611Z,18.12
2018-07-04T06:08:50.854Z,18.67
2018-07-04T06:09:22.094Z,17.35
2018-07-04T06:09:53.320Z,18.15
2018-07-04T06:10:24.508Z,17.82
2018-07-04T06:10:55.742Z,17.60
2018-07-04T06:11:26.929Z,17.20
2018-07-04T06:11:58.117Z,18.10
2018-07-04T06:12:29.304Z,17.92
2018-07-04T06:13:00.556Z,17.45
2018-07-04T06:13:31.726Z,17.55
2018-07-04T06:14:02.917Z,17.17
2018-07-04T06:14:34.146Z,17.07
2018-07-04T06:15:05.331Z,17.12
2018-07-04T06:15:36.575Z,17.10
2018-07-04T06:16:07.858Z,17.98
2018-07-04T06:16:39.040Z,16.90
2018-07-04T06:17:10.217Z,16.60
2018-07-04T06:17:41.532Z,17.50
2018-07-04T06:18:12.665Z,18.42
2018-07-04T06:18:43.844Z,18.80
2018-07-04T06:19:15.034Z,17.60
2018-07-04T06:19:46.287Z,17.10
2018-07-04T06:20:17.534Z,18.00
2018-07-04T06:20:49.655Z,17.37
2018-07-04T06:21:20.901Z,16.65
2018-07-04T06:21:52.093Z,17.10
2018-07-04T06:22:23.281Z,17.00
2018-07-04T06:22:54.525Z,17.90
2018-07-04T06:23:25.797Z,17.57
2018-07-04T06:23:56.972Z,16.82
2018-07-04T06:24:28.205Z,16.90
2018-07-04T06:24:59.386Z,17.07
2018-07-04T06:25:30.578Z,16.23
2018-07-04T06:26:01.754Z,16.93
2018-07-04T06:26:32.978Z,16.90
2018-07-04T06:27:04.305Z,16.35
2018-07-04T06:27:35.502Z,16.67
2018-07-04T06:28:06.672Z,15.70
2018-07-04T06:28:38.876Z,15.98
2018-07-04T06:29:10.124Z,17.55
2018-07-04T06:29:41.361Z,16.87
2018-07-04T06:30:12.544Z,16.30
2018-07-04T06:30:43.730Z,15.65
2018-07-04T06:31:14.984Z,15.55
2018-07-04T06:31:46.217Z,15.75
2018-07-04T06:32:17.450Z,16.65
2018-07-04T06:32:48.629Z,16.50
2018-07-04T06:33:19.803Z,15.85
2018-07-04T06:33:50.984Z,16.20
2018-07-04T06:34:22.160Z,16.30
2018-07-04T06:34:53.401Z,15.75
2018-07-04T06:35:24.586Z,16.77
2018-07-04T06:35:55.765Z,17.20
2018-07-04T06:36:26.989Z,16.57
2018-07-04T06:36:58.213Z,16.20
2018-07-04T06:37:29.409Z,16.57
2018-07-04T06:38:00.586Z,16.23
2018-07-04T06:38:31.765Z,16.25
2018-07-04T06:39:03.059Z,16.90
2018-07-04T06:39:34.269Z,16.20
2018-07-04T06:40:05.501Z,16.32
2018-07-04T06:40:36.696Z,16.45
2018-07-04T06:41:07.879Z,16.65
2018-07-04T06:41:39.088Z,15.48
2018-07-04T06:42:10.267Z,24.15
2018-07-04T06:42:41.489Z,21.07